createdAt,value
2019-06-26T00:01:49.707Z,28.30
2019-06-26T00:04:18.232Z,28.30
2019-06-26T00:06:46.961Z,28.30
2019-06-26T00:09:15.645Z,28.30
2019-06-26T00:11:44.107Z,28.30
2019-06-26T00:14:12.594Z,28.20
2019-06-26T00:16:41.027Z,28.20
2019-06-26T00:19:09.766Z,28.20
2019-06-26T00:21:38.202Z,28.20
2019-06-26T00:24:06.692Z,28.20
2019-06-26T00:26:35.417Z,28.10
2019-06-26T00:29:04.100Z,28.00
2019-06-26T00:31:32.568Z,28.00
2019-06-26T00:34:01.366Z,28.00
2019-06-26T00:36:30.059Z,27.90
2019-06-26T00:38:58.744Z,27.90
2019-06-26T00:41:27.474Z,27.90
2019-06-26T00:43:56.217Z,27.80
2019-06-26T00:46:24.637Z,27.80
2019-06-26T00:48:53.310Z,27.80
2019-06-26T00:51:22.068Z,27.70
2019-06-26T00:53:50.498Z,27.70
2019-06-26T00:56:19.219Z,27.70
2019-06-26T00:58:47.906Z,27.60
2019-06-26T01:01:16.910Z,27.60
2019-06-26T01:03:45.580Z,27.60
2019-06-26T01:06:25.019Z,27.50
2019-06-26T01:08:53.697Z,27.50
2019-06-26T01:11:22.140Z,27.50
2019-06-26T01:13:58.028Z,27.50
2019-06-26T01:16:20.965Z,27.40
2019-06-26T01:18:49.391Z,27.40
2019-06-26T01:21:18.160Z,27.40
2019-06-26T01:23:46.576Z,27.30
2019-06-26T01:26:15.322Z,27.30
2019-06-26T01:28:43.741Z,27.30
2019-06-26T01:31:12.165Z,27.20
2019-06-26T01:33:40.608Z,27.20
2019-06-26T01:36:09.274Z,27.10
2019-06-26T01:38:37.723Z,27.10
2019-06-26T01:41:06.156Z,27.10
2019-06-26T01:43:34.643Z,27.00
2019-06-26T01:46:04.100Z,26.90
2019-06-26T01:48:32.519Z,26.90
2019-06-26T01:51:01.190Z,26.80
2019-06-26T01:53:29.630Z,26.80
2019-06-26T01:55:58.058Z,26.70
2019-06-26T01:58:27.121Z,26.70
2019-06-26T02:00:55.795Z,26.70
2019-06-26T02:03:24.595Z,26.60
2019-06-26T02:05:53.074Z,26.60
2019-06-26T02:08:21.828Z,26.50
2019-06-26T02:10:50.512Z,26.50
2019-06-26T02:13:19.210Z,26.50
2019-06-26T02:15:47.893Z,26.40
2019-06-26T02:18:27.077Z,26.40
2019-06-26T02:20:55.599Z,26.40
2019-06-26T02:23:24.118Z,26.40
2019-06-26T02:25:52.589Z,26.30
2019-06-26T02:28:21.042Z,26.30
2019-06-26T02:30:49.925Z,26.20
2019-06-26T02:33:18.370Z,26.20
2019-06-26T02:35:47.194Z,26.20
2019-06-26T02:38:16.021Z,26.10
2019-06-26T02:40:44.691Z,26.10
2019-06-26T02:43:13.204Z,26.10
2019-06-26T02:45:41.906Z,26.10
2019-06-26T02:48:10.613Z,26.00
2019-06-26T02:50:39.283Z,26.00
2019-06-26T02:53:07.795Z,26.00
2019-06-26T02:55:36.222Z,25.90
2019-06-26T02:58:04.714Z,25.90
2019-06-26T03:00:33.397Z,25.90
2019-06-26T03:03:02.239Z,25.80
2019-06-26T03:05:30.902Z,25.80
2019-06-26T03:07:59.322Z,25.80
2019-06-26T03:10:27.993Z,25.80
2019-06-26T05:04:56.852Z,26.20
2019-06-26T05:07:25.650Z,26.30
2019-06-26T05:09:54.058Z,26.30
2019-06-26T05:12:22.488Z,26.40
2019-06-26T05:14:50.911Z,26.40
2019-06-26T05:17:19.343Z,26.40
2019-06-26T05:19:48.129Z,26.50
2019-06-26T05:22:16.569Z,26.50
2019-06-26T05:24:46.501Z,26.60
2019-06-26T05:27:16.240Z,26.70
2019-06-26T05:29:44.702Z,26.80
2019-06-26T05:32:13.208Z,27.00
2019-06-26T05:34:41.632Z,27.10
2019-06-26T05:37:10.060Z,27.30
2019-06-26T05:39:38.497Z,27.40
2019-06-26T05:42:07.032Z,27.60
2019-06-26T05:44:35.626Z,27.80
2019-06-26T05:47:06.967Z,28.00
2019-06-26T05:49:34.193Z,28.10
2019-06-26T05:52:02.668Z,28.20
2019-06-26T05:54:31.121Z,28.30
2019-06-26T05:56:59.600Z,28.50
2019-06-26T05:59:28.055Z,28.50
2019-06-26T06:01:56.493Z,28.70
2019-06-26T06:04:24.912Z,28.80
2019-06-26T06:06:53.341Z,28.90
2019-06-26T06:09:21.830Z,28.90
2019-06-26T06:11:50.265Z,29.00
2019-06-26T06:14:19.045Z,29.10
2019-06-26T06:16:48.126Z,29.10
2019-06-26T06:19:16.673Z,29.20
2019-06-26T06:21:45.738Z,29.30
2019-06-26T06:24:14.153Z,29.50
2019-06-26T06:26:42.601Z,29.70
2019-06-26T06:29:11.304Z,29.80
2019-06-26T06:31:39.756Z,30.00
2019-06-26T06:34:08.652Z,30.20
2019-06-26T06:36:37.085Z,30.40
2019-06-26T06:39:06.340Z,30.50
2019-06-26T06:41:34.756Z,30.70
2019-06-26T06:44:03.257Z,30.80
2019-06-26T06:46:32.092Z,30.90
2019-06-26T06:49:00.518Z,31.00
2019-06-26T06:51:28.959Z,31.10
2019-06-26T06:53:57.398Z,31.30
2019-06-26T06:56:25.827Z,31.40
2019-06-26T06:58:54.265Z,31.50
2019-06-26T07:01:22.775Z,31.70
2019-06-26T07:03:51.218Z,31.90
2019-06-26T07:06:19.657Z,32.20
2019-06-26T07:08:48.085Z,32.30
2019-06-26T07:11:16.506Z,32.50
2019-06-26T07:13:44.957Z,32.60
2019-06-26T07:16:13.530Z,32.80
2019-06-26T07:18:41.993Z,32.90
2019-06-26T07:21:10.479Z,32.80
2019-06-26T07:23:38.897Z,32.80
2019-06-26T07:26:07.313Z,33.00
2019-06-26T07:28:35.839Z,33.00
2019-06-26T07:31:04.259Z,33.10
2019-06-26T07:33:32.690Z,33.30
2019-06-26T07:36:01.125Z,33.40
2019-06-26T07:38:29.678Z,33.50
2019-06-26T07:40:58.123Z,33.70
2019-06-26T07:43:26.540Z,33.70
2019-06-26T07:45:54.981Z,33.70
2019-06-26T07:48:23.417Z,33.70
2019-06-26T07:50:52.110Z,33.70
2019-06-26T07:53:20.556Z,33.90
2019-06-26T07:55:48.977Z,34.10
2019-06-26T07:58:17.439Z,34.30
2019-06-26T08:00:45.990Z,34.60
2019-06-26T08:03:14.519Z,34.90
2019-06-26T08:05:43.397Z,35.10
2019-06-26T08:08:14.464Z,35.20
2019-06-26T08:10:42.588Z,35.30
2019-06-26T08:13:11.004Z,35.20
2019-06-26T08:15:39.437Z,35.30
2019-06-26T08:18:07.885Z,35.20
2019-06-26T08:20:50.266Z,35.20
2019-06-26T08:23:06.449Z,35.10
2019-06-26T08:25:34.907Z,35.10
2019-06-26T08:28:03.376Z,35.10
2019-06-26T08:30:31.809Z,35.20
2019-06-26T08:33:00.472Z,35.40
2019-06-26T08:35:28.925Z,35.60
2019-06-26T08:38:09.454Z,35.90
2019-06-26T08:40:28.649Z,36.20
2019-06-26T08:42:57.087Z,36.50
2019-06-26T08:45:25.835Z,36.70
2019-06-26T08:47:55.134Z,37.00
2019-06-26T08:50:24.485Z,37.20
2019-06-26T08:52:52.999Z,37.30
2019-06-26T08:55:21.434Z,37.40
2019-06-26T08:57:50.212Z,37.50
2019-06-26T09:00:19.455Z,37.50
2019-06-26T09:02:48.118Z,37.50
2019-06-26T09:05:16.697Z,37.50
2019-06-26T09:07:45.138Z,37.50
2019-06-26T09:10:14.329Z,37.40
2019-06-26T09:12:42.761Z,37.30
2019-06-26T09:15:11.658Z,37.10
2019-06-26T09:17:40.087Z,36.90
2019-06-26T09:20:09.154Z,36.70
2019-06-26T09:22:37.655Z,36.50
2019-06-26T09:25:20.828Z,36.40
2019-06-26T09:27:38.096Z,36.20
2019-06-26T09:30:07.592Z,36.20
2019-06-26T09:32:36.155Z,36.10
2019-06-26T09:35:05.981Z,36.10
2019-06-26T09:37:34.415Z,36.10
2019-06-26T09:40:02.960Z,36.20
2019-06-26T09:42:31.439Z,36.20
2019-06-26T09:44:59.924Z,36.30
2019-06-26T09:47:30.964Z,36.30
2019-06-26T09:49:58.592Z,36.30
2019-06-26T09:52:27.130Z,36.40
2019-06-26T09:54:55.640Z,36.50
2019-06-26T09:57:24.053Z,36.60
2019-06-26T09:59:52.490Z,36.60
2019-06-26T10:02:20.922Z,36.60
2019-06-26T10:04:49.367Z,36.50
2019-06-26T10:07:18.022Z,36.50
2019-06-26T10:09:46.693Z,36.50
2019-06-26T10:12:15.404Z,36.40
2019-06-26T10:14:47.872Z,36.20
2019-06-26T10:17:14.853Z,35.90
2019-06-26T10:19:43.533Z,35.70
2019-06-26T10:22:11.979Z,35.50
2019-06-26T10:24:40.725Z,35.30
2019-06-26T10:27:09.162Z,35.10
2019-06-26T10:29:37.578Z,35.00
2019-06-26T10:32:06.062Z,34.80
2019-06-26T10:34:34.543Z,34.70
2019-06-26T10:37:03.016Z,34.70
2019-06-26T10:39:31.500Z,34.60
2019-06-26T10:41:59.936Z,34.60
2019-06-26T10:44:28.357Z,34.40
2019-06-26T10:46:56.909Z,34.40
2019-06-26T10:49:27.441Z,34.30
2019-06-26T10:51:55.491Z,34.30
2019-06-26T10:54:23.956Z,34.30
2019-06-26T10:56:52.400Z,34.30
2019-06-26T10:59:20.827Z,34.30
2019-06-26T11:01:49.253Z,34.30
2019-06-26T11:04:17.684Z,34.30
2019-06-26T11:06:46.174Z,34.30
2019-06-26T11:09:14.917Z,34.30
2019-06-26T11:11:43.693Z,34.40
2019-06-26T11:14:12.142Z,34.40
2019-06-26T11:16:40.568Z,34.60
2019-06-26T11:19:09.044Z,34.70
2019-06-26T11:21:37.911Z,34.80
2019-06-26T11:24:06.586Z,34.80
2019-06-26T11:26:35.392Z,34.90
2019-06-26T11:29:04.063Z,34.80
2019-06-26T11:31:32.764Z,34.70
2019-06-26T11:34:01.403Z,34.70
2019-06-26T11:36:30.210Z,34.70
2019-06-26T11:38:58.728Z,34.70
2019-06-26T11:41:27.165Z,34.70
2019-06-26T11:43:55.699Z,34.70
2019-06-26T11:46:24.387Z,34.70
2019-06-26T11:48:53.218Z,34.70
2019-06-26T11:51:21.651Z,34.80
2019-06-26T11:53:50.385Z,34.70
2019-06-26T11:56:19.249Z,34.70
2019-06-26T11:58:47.685Z,34.70
2019-06-26T12:01:16.101Z,34.70
2019-06-26T12:03:44.544Z,34.60
2019-06-26T12:06:18.821Z,34.60
2019-06-26T12:08:42.938Z,34.60
2019-06-26T12:11:11.365Z,34.40
2019-06-26T12:13:39.825Z,34.30
2019-06-26T12:16:08.241Z,34.20
2019-06-26T12:18:36.674Z,34.20
2019-06-26T12:21:05.875Z,34.20
2019-06-26T12:23:34.302Z,34.30
2019-06-26T12:26:02.985Z,34.40
2019-06-26T12:28:31.424Z,34.50
2019-06-26T12:30:59.876Z,34.60
2019-06-26T12:33:28.310Z,34.70
2019-06-26T12:35:56.749Z,34.90
2019-06-26T12:38:25.191Z,34.90
2019-06-26T12:40:53.681Z,35.00
2019-06-26T12:43:22.359Z,34.90
2019-06-26T12:45:50.765Z,34.90
2019-06-26T12:48:19.318Z,34.80
2019-06-26T12:50:47.812Z,34.80
2019-06-26T12:53:16.302Z,34.80
2019-06-26T12:55:44.716Z,34.80
2019-06-26T12:58:19.198Z,34.90
2019-06-26T13:00:43.330Z,34.90
2019-06-26T13:03:11.789Z,35.10
2019-06-26T13:05:40.216Z,35.10
2019-06-26T13:08:09.005Z,35.10
2019-06-26T13:10:48.892Z,35.10
2019-06-26T13:13:07.952Z,35.20
2019-06-26T13:15:36.412Z,35.20
2019-06-26T13:18:04.946Z,35.20
2019-06-26T13:20:33.528Z,35.20
2019-06-26T13:23:02.229Z,35.20
2019-06-26T13:25:31.028Z,35.10
2019-06-26T13:27:59.728Z,35.00
2019-06-26T13:30:34.019Z,34.90
2019-06-26T13:33:02.442Z,34.80
2019-06-26T13:35:31.138Z,34.80
2019-06-26T13:37:59.615Z,34.70
2019-06-26T13:40:28.089Z,34.80
2019-06-26T13:42:56.512Z,34.80
2019-06-26T13:45:25.014Z,34.80
2019-06-26T13:47:53.417Z,34.90
2019-06-26T13:50:22.033Z,34.90
2019-06-26T13:52:50.686Z,34.90
2019-06-26T13:55:19.117Z,34.90
2019-06-26T13:57:47.928Z,34.90
2019-06-26T14:00:16.896Z,34.80
2019-06-26T14:02:45.670Z,34.70
2019-06-26T14:05:14.491Z,34.60
2019-06-26T14:07:43.216Z,34.60
2019-06-26T14:10:12.246Z,34.70
2019-06-26T14:12:40.662Z,34.70
2019-06-26T14:15:09.638Z,34.70
2019-06-26T14:17:38.080Z,34.80
2019-06-26T14:20:08.106Z,34.80
2019-06-26T14:22:36.588Z,34.70
2019-06-26T14:25:08.368Z,34.70
2019-06-26T14:27:37.013Z,34.70
2019-06-26T14:30:07.816Z,34.70
2019-06-26T14:32:36.276Z,34.70
2019-06-26T14:35:05.750Z,34.70
2019-06-26T14:37:34.194Z,34.70
2019-06-26T14:40:02.721Z,34.60
2019-06-26T14:42:31.128Z,34.60
2019-06-26T14:44:59.579Z,34.60
2019-06-26T14:47:27.996Z,34.60
2019-06-26T14:49:56.429Z,34.50
2019-06-26T14:52:25.133Z,34.40
2019-06-26T14:54:53.549Z,34.40
2019-06-26T14:57:25.095Z,34.50
2019-06-26T14:59:52.414Z,34.50
2019-06-26T15:02:20.849Z,34.40
2019-06-26T15:04:49.276Z,34.40
2019-06-26T15:07:17.697Z,34.30
2019-06-26T15:09:46.121Z,34.30
2019-06-26T15:12:15.024Z,34.30
2019-06-26T15:14:43.442Z,34.30
2019-06-26T15:17:12.138Z,34.30
2019-06-26T15:19:40.814Z,34.30
2019-06-26T15:22:09.258Z,34.40
2019-06-26T15:24:38.831Z,34.40
2019-06-26T15:27:07.535Z,34.40
2019-06-26T15:29:36.207Z,34.30
2019-06-26T15:32:04.642Z,34.30
2019-06-26T15:34:33.356Z,34.30
2019-06-26T15:37:02.227Z,34.30
2019-06-26T15:39:30.977Z,34.30
2019-06-26T15:41:59.408Z,34.30
2019-06-26T15:44:27.839Z,34.20
2019-06-26T15:46:56.267Z,34.20
2019-06-26T15:49:24.696Z,34.20
2019-06-26T15:51:53.150Z,34.20
2019-06-26T15:54:21.578Z,34.10
2019-06-26T15:56:50.028Z,34.10
2019-06-26T15:59:18.463Z,34.10
2019-06-26T16:01:47.017Z,34.10
2019-06-26T16:04:15.441Z,34.10
2019-06-26T16:06:43.886Z,34.00
2019-06-26T16:09:12.298Z,33.90
2019-06-26T16:11:40.758Z,33.90
2019-06-26T16:14:09.262Z,33.90
2019-06-26T16:16:39.589Z,33.90
2019-06-26T16:19:15.393Z,33.80
2019-06-26T16:21:44.136Z,33.80
2019-06-26T16:24:12.550Z,33.80
2019-06-26T16:26:40.994Z,33.80
2019-06-26T16:29:09.603Z,33.80
2019-06-26T16:31:38.106Z,33.80
2019-06-26T16:34:06.533Z,33.80
2019-06-26T16:36:35.553Z,33.80
2019-06-26T16:39:06.638Z,33.70
2019-06-26T16:41:35.825Z,33.70
2019-06-26T16:44:05.117Z,33.70
2019-06-26T16:46:33.537Z,33.70
2019-06-26T16:49:02.317Z,33.60
2019-06-26T16:51:30.754Z,33.60
2019-06-26T16:53:59.207Z,33.60
2019-06-26T16:56:27.619Z,33.50
2019-06-26T16:58:56.090Z,33.50
2019-06-26T17:01:24.508Z,33.40
2019-06-26T17:03:53.097Z,33.30
2019-06-26T17:06:21.514Z,33.30
2019-06-26T17:08:49.960Z,33.30
2019-06-26T17:11:18.376Z,33.20
2019-06-26T17:13:46.886Z,33.20
2019-06-26T17:16:16.990Z,33.10
2019-06-26T17:18:45.437Z,33.00
2019-06-26T17:21:13.873Z,33.00
2019-06-26T17:23:42.375Z,33.00
2019-06-26T17:26:10.790Z,32.90
2019-06-26T17:28:39.243Z,32.80
2019-06-26T17:31:07.670Z,32.80
2019-06-26T17:33:36.402Z,32.80
2019-06-26T17:36:05.131Z,32.70
2019-06-26T17:38:34.023Z,32.70
2019-06-26T17:41:03.235Z,32.60
2019-06-26T17:43:31.731Z,32.60
2019-06-26T17:46:00.187Z,32.50
2019-06-26T17:48:28.630Z,32.50
2019-06-26T17:50:57.186Z,32.40
2019-06-26T17:53:26.158Z,32.40
2019-06-26T17:55:54.604Z,32.30
2019-06-26T17:58:25.388Z,32.30
2019-06-26T18:00:53.504Z,32.20
2019-06-26T18:03:21.932Z,32.20
2019-06-26T18:05:50.354Z,32.10
2019-06-26T18:08:19.189Z,32.10
2019-06-26T18:10:47.866Z,32.00
2019-06-26T18:13:16.695Z,31.90
2019-06-26T18:15:45.125Z,31.90
2019-06-26T18:18:13.869Z,31.80
2019-06-26T18:20:42.333Z,31.80
2019-06-26T18:23:10.880Z,31.70
2019-06-26T18:25:39.617Z,31.60
2019-06-26T18:28:08.064Z,31.60
2019-06-26T18:30:36.761Z,31.60
2019-06-26T18:33:05.224Z,31.40
2019-06-26T18:35:33.785Z,31.30
2019-06-26T18:38:02.205Z,31.30
2019-06-26T18:40:31.007Z,31.20
2019-06-26T18:42:59.434Z,31.10
2019-06-26T18:45:28.172Z,31.00
2019-06-26T18:47:56.659Z,30.90
2019-06-26T18:50:25.109Z,30.90
2019-06-26T18:52:53.570Z,30.80
2019-06-26T18:55:22.049Z,30.80
2019-06-26T18:57:50.474Z,30.70
2019-06-26T19:00:20.436Z,30.60
2019-06-26T19:02:48.900Z,30.60
2019-06-26T19:05:17.590Z,30.50
2019-06-26T19:07:46.022Z,30.40
2019-06-26T19:10:14.809Z,30.40
2019-06-26T19:12:43.371Z,30.30
2019-06-26T19:15:12.240Z,30.20
2019-06-26T19:17:42.524Z,30.20
2019-06-26T19:20:11.365Z,30.10
2019-06-26T19:22:39.845Z,30.10
2019-06-26T19:25:08.801Z,30.00
2019-06-26T19:27:37.240Z,29.90
2019-06-26T19:30:07.649Z,29.80
2019-06-26T19:32:37.569Z,29.80
2019-06-26T19:35:18.407Z,29.70
2019-06-26T19:37:37.725Z,29.70
2019-06-26T19:40:08.565Z,29.50
2019-06-26T19:42:37.048Z,29.50
2019-06-26T19:45:07.879Z,29.50
2019-06-26T19:47:36.657Z,29.30
2019-06-26T19:50:08.558Z,29.30
2019-06-26T19:52:37.078Z,29.20
2019-06-26T19:55:08.725Z,29.10
2019-06-26T19:57:37.166Z,29.10
2019-06-26T20:00:08.210Z,29.00
2019-06-26T20:02:35.872Z,29.00
2019-06-26T20:05:08.345Z,28.90
2019-06-26T20:07:36.773Z,28.80
2019-06-26T20:10:07.049Z,28.80
2019-06-26T20:12:35.499Z,28.70
2019-06-26T20:15:05.916Z,28.70
2019-06-26T20:17:34.413Z,28.60
2019-06-26T20:20:04.813Z,28.60
2019-06-26T20:22:33.246Z,28.50
2019-06-26T20:25:01.708Z,28.50
2019-06-26T20:27:30.158Z,28.40
2019-06-26T20:29:58.560Z,28.30
2019-06-26T20:32:26.996Z,28.30
2019-06-26T20:34:55.835Z,28.30
2019-06-26T20:37:24.260Z,28.20
2019-06-26T20:39:52.725Z,28.20
2019-06-26T20:42:21.212Z,28.10
2019-06-26T20:44:49.624Z,28.10
2019-06-26T20:47:18.049Z,28.10
2019-06-26T20:49:53.306Z,28.00
2019-06-26T20:52:16.875Z,28.00
2019-06-26T20:55:00.050Z,27.90
2019-06-26T20:57:15.438Z,27.90
2019-06-26T20:59:44.105Z,27.90
2019-06-26T21:02:12.537Z,27.90
2019-06-26T21:04:40.966Z,27.80
2019-06-26T21:07:09.747Z,27.80
2019-06-26T21:09:38.684Z,27.70
2019-06-26T21:12:07.512Z,27.70
2019-06-26T21:14:36.185Z,27.60
2019-06-26T21:17:04.626Z,27.60
2019-06-26T21:19:33.060Z,27.50
2019-06-26T21:22:01.488Z,27.50
2019-06-26T21:24:29.943Z,27.40
2019-06-26T21:26:58.592Z,27.40
2019-06-26T21:29:27.031Z,27.40
2019-06-26T21:31:55.496Z,27.30
2019-06-26T21:34:24.193Z,27.30
2019-06-26T21:36:52.634Z,27.20
2019-06-26T21:39:21.063Z,27.20
2019-06-26T21:41:49.472Z,27.10
2019-06-26T21:44:17.900Z,27.10
2019-06-26T21:46:46.558Z,27.10
2019-06-26T21:49:15.938Z,27.00
2019-06-26T21:51:44.364Z,26.90
2019-06-26T21:54:12.788Z,26.90
2019-06-26T21:56:41.260Z,26.80
2019-06-26T21:59:09.740Z,26.70
2019-06-26T22:01:38.451Z,26.70
2019-06-26T22:04:07.063Z,26.60
2019-06-26T22:06:35.948Z,26.50
2019-06-26T22:09:06.066Z,26.50
2019-06-26T22:11:34.481Z,26.40
2019-06-26T22:14:03.235Z,26.40
2019-06-26T22:16:36.432Z,26.30
2019-06-26T22:19:04.985Z,26.30
2019-06-26T22:21:33.464Z,26.20
2019-06-26T22:24:01.902Z,26.20
2019-06-26T22:26:30.333Z,26.10
2019-06-26T22:28:58.831Z,26.10
2019-06-26T22:31:27.325Z,26.00
2019-06-26T22:33:55.756Z,26.00
2019-06-26T22:36:24.166Z,25.90
2019-06-26T22:38:52.602Z,25.90
2019-06-26T22:41:21.010Z,25.90
2019-06-26T22:43:49.425Z,25.80
2019-06-26T22:46:17.856Z,25.80
2019-06-26T22:48:46.283Z,25.80
2019-06-26T22:51:14.832Z,25.70
2019-06-26T22:53:46.821Z,25.70
2019-06-26T22:56:15.252Z,25.60
2019-06-26T22:58:46.592Z,25.60
2019-06-26T23:01:15.039Z,25.50
2019-06-26T23:03:43.531Z,25.40
2019-06-26T23:06:11.953Z,25.40
2019-06-26T23:08:40.446Z,25.40
2019-06-26T23:11:08.882Z,25.30
2019-06-26T23:13:47.187Z,25.20
2019-06-26T23:16:15.639Z,25.20
2019-06-26T23:18:44.055Z,25.20
2019-06-26T23:21:12.755Z,25.10
2019-06-26T23:23:42.345Z,25.10
2019-06-26T23:26:23.461Z,25.00
2019-06-26T23:28:41.095Z,25.00
2019-06-26T23:31:09.847Z,24.90
2019-06-26T23:33:38.375Z,24.90
2019-06-26T23:36:06.937Z,24.80
2019-06-26T23:38:35.694Z,24.80
2019-06-26T23:41:04.485Z,24.80
2019-06-26T23:43:33.174Z,24.70
2019-06-26T23:46:01.682Z,24.70
2019-06-26T23:48:30.670Z,24.60
2019-06-26T23:50:59.111Z,24.60
2019-06-26T23:53:27.535Z,24.60
2019-06-26T23:55:55.970Z,24.50
2019-06-26T23:58:24.390Z,24.50
